createdAt,value
2023-04-18T00:00:54.730Z,59.19
2023-04-18T00:02:33.589Z,61.13
2023-04-18T00:04:10.066Z,63.89
2023-04-18T00:05:44.125Z,64.98
2023-04-18T00:07:29.742Z,63.37
2023-04-18T00:09:15.236Z,60.90
2023-04-18T00:11:05.665Z,58.93
2023-04-18T00:12:39.189Z,57.61
2023-04-18T00:14:21.657Z,58.88
2023-04-18T00:15:55.460Z,61.26
2023-04-18T00:17:41.002Z,63.30
2023-04-18T00:19:05.537Z,64.87
2023-04-18T00:20:38.884Z,63.66
2023-04-18T00:22:13.814Z,61.04
2023-04-18T00:23:54.829Z,58.71
2023-04-18T00:25:39.619Z,57.37
2023-04-18T00:27:12.664Z,58.75
2023-04-18T00:28:53.601Z,60.80
2023-04-18T00:30:34.465Z,63.12
2023-04-18T00:32:28.655Z,64.84
2023-04-18T00:34:09.818Z,62.82
2023-04-18T00:35:43.180Z,60.12
2023-04-18T00:37:25.710Z,58.41
2023-04-18T00:39:10.601Z,57.95
2023-04-18T00:40:39.495Z,59.60
2023-04-18T00:42:20.451Z,61.80
2023-04-18T00:43:53.464Z,63.98
2023-04-18T00:45:38.701Z,64.23
2023-04-18T00:47:19.588Z,61.93
2023-04-18T00:49:04.844Z,59.94
2023-04-18T00:50:49.997Z,57.92
2023-04-18T00:52:33.744Z,58.20
2023-04-18T00:54:03.205Z,60.34
2023-04-18T00:55:27.370Z,62.61
2023-04-18T00:57:00.382Z,64.46
2023-04-18T00:58:34.247Z,64.21
2023-04-18T01:00:01.132Z,62.19
2023-04-18T01:01:27.471Z,60.20
2023-04-18T01:02:55.763Z,58.22
2023-04-18T01:04:29.876Z,57.71
2023-04-18T01:06:15.517Z,59.41
2023-04-18T01:08:04.275Z,61.50
2023-04-18T01:09:49.387Z,64.67
2023-04-18T01:11:23.093Z,64.79
2023-04-18T01:12:56.892Z,63.14
2023-04-18T01:14:42.678Z,60.74
2023-04-18T01:16:27.868Z,58.52
2023-04-18T01:18:13.032Z,57.86
2023-04-18T01:19:49.473Z,59.44
2023-04-18T01:21:13.373Z,61.30
2023-04-18T01:22:49.091Z,63.09
2023-04-18T01:24:43.206Z,65.21
2023-04-18T01:26:26.684Z,63.57
2023-04-18T01:28:21.732Z,61.01
2023-04-18T01:30:05.372Z,58.91
2023-04-18T01:31:50.670Z,57.72
2023-04-18T01:33:35.493Z,59.16
2023-04-18T01:35:23.026Z,61.36
2023-04-18T01:37:08.371Z,63.74
2023-04-18T01:38:48.844Z,64.94
2023-04-18T01:40:35.124Z,63.03
2023-04-18T01:42:11.992Z,60.56
2023-04-18T01:43:46.071Z,58.19
2023-04-18T01:45:22.646Z,57.65
2023-04-18T01:47:03.458Z,58.96
2023-04-18T01:48:39.090Z,61.06
2023-04-18T01:50:03.512Z,63.40
2023-04-18T01:51:39.961Z,64.68
2023-04-18T01:53:24.909Z,62.81
2023-04-18T01:55:12.328Z,60.45
2023-04-18T01:56:47.882Z,58.28
2023-04-18T01:58:23.193Z,57.97
2023-04-18T01:59:54.577Z,59.60
2023-04-18T02:01:39.475Z,62.11
2023-04-18T02:03:24.735Z,65.02
2023-04-18T02:05:00.758Z,64.73
2023-04-18T02:06:34.161Z,62.58
2023-04-18T02:08:15.560Z,60.71
2023-04-18T02:09:42.555Z,58.89
2023-04-18T02:11:19.804Z,57.61
2023-04-18T02:12:49.189Z,58.63
2023-04-18T02:14:34.597Z,60.84
2023-04-18T02:16:11.318Z,63.34
2023-04-18T02:17:45.238Z,64.54
2023-04-18T02:19:30.141Z,63.28
2023-04-18T02:21:16.449Z,60.94
2023-04-18T02:22:57.411Z,58.97
2023-04-18T02:24:37.679Z,57.83
2023-04-18T02:26:23.235Z,58.91
2023-04-18T02:27:52.631Z,61.25
2023-04-18T02:29:40.875Z,63.81
2023-04-18T02:31:15.771Z,65.30
2023-04-18T02:32:52.115Z,63.18
2023-04-18T02:34:46.871Z,60.70
2023-04-18T02:36:32.943Z,58.69
2023-04-18T02:37:57.201Z,57.69
2023-04-18T02:39:42.023Z,59.05
2023-04-18T02:41:35.283Z,61.57
2023-04-18T02:43:09.912Z,64.16
2023-04-18T02:44:55.106Z,64.47
2023-04-18T02:46:30.445Z,62.28
2023-04-18T02:48:17.099Z,59.95
2023-04-18T02:49:40.055Z,57.95
2023-04-18T02:51:15.862Z,57.93
2023-04-18T02:52:49.865Z,59.86
2023-04-18T02:54:44.748Z,61.79
2023-04-18T02:56:12.984Z,64.19
2023-04-18T02:58:40.160Z,63.08
2023-04-18T03:00:35.508Z,60.66
2023-04-18T03:02:26.688Z,58.42
2023-04-18T03:03:53.607Z,57.75
2023-04-18T03:05:53.911Z,59.56
2023-04-18T03:07:38.636Z,61.87
2023-04-18T03:09:23.799Z,65.06
2023-04-18T03:11:01.115Z,64.92
2023-04-18T03:12:35.388Z,63.30
2023-04-18T03:14:09.068Z,60.94
2023-04-18T03:16:06.382Z,58.82
2023-04-18T03:17:40.752Z,58.07
2023-04-18T03:19:05.368Z,59.45
2023-04-18T03:20:46.765Z,61.52
2023-04-18T03:22:33.379Z,64.47
2023-04-18T03:23:58.364Z,65.08
2023-04-18T03:25:34.216Z,63.00
2023-04-18T03:27:19.561Z,60.90
2023-04-18T03:29:04.765Z,58.89
2023-04-18T03:30:38.292Z,57.70
2023-04-18T03:32:03.472Z,59.12
2023-04-18T03:33:48.422Z,61.02
2023-04-18T03:35:37.710Z,63.72
2023-04-18T03:37:18.311Z,64.78
2023-04-18T03:39:02.701Z,62.60
2023-04-18T03:40:29.037Z,60.43
2023-04-18T03:42:26.370Z,58.48
2023-04-18T03:44:19.653Z,57.94
2023-04-18T03:46:03.080Z,59.78
2023-04-18T03:47:39.270Z,62.07
2023-04-18T03:49:16.912Z,64.52
2023-04-18T03:50:41.323Z,64.68
2023-04-18T03:52:08.557Z,62.65
2023-04-18T03:53:53.878Z,60.43
2023-04-18T03:55:39.016Z,58.24
2023-04-18T03:57:25.670Z,58.27
2023-04-18T03:59:19.737Z,60.38
2023-04-18T04:01:07.536Z,63.09
2023-04-18T04:02:41.309Z,64.98
2023-04-18T04:04:15.821Z,63.60
2023-04-18T04:06:03.500Z,61.61
2023-04-18T04:07:36.825Z,59.47
2023-04-18T04:09:18.802Z,57.94
2023-04-18T04:11:04.110Z,58.68
2023-04-18T04:12:45.687Z,60.75
2023-04-18T04:14:39.237Z,62.73
2023-04-18T04:16:24.355Z,65.49
2023-04-18T04:18:16.885Z,63.70
2023-04-18T04:20:03.407Z,61.26
2023-04-18T04:21:27.164Z,59.11
2023-04-18T04:23:04.476Z,57.87
2023-04-18T04:24:45.815Z,59.06
2023-04-18T04:26:27.332Z,61.34
2023-04-18T04:27:59.630Z,63.90
2023-04-18T04:29:32.902Z,65.45
2023-04-18T04:31:19.990Z,63.94
2023-04-18T04:32:57.391Z,61.48
2023-04-18T04:34:42.750Z,59.23
2023-04-18T04:36:37.666Z,58.19
2023-04-18T04:38:24.345Z,59.59
2023-04-18T04:40:06.205Z,61.75
2023-04-18T04:41:51.073Z,65.12
2023-04-18T04:43:27.583Z,64.82
2023-04-18T04:45:02.182Z,63.19
2023-04-18T04:46:41.882Z,61.06
2023-04-18T04:48:26.938Z,59.19
2023-04-18T04:50:03.341Z,57.99
2023-04-18T04:51:48.054Z,59.37
2023-04-18T04:53:41.557Z,61.95
2023-04-18T04:55:23.819Z,64.35
2023-04-18T04:56:55.682Z,64.49
2023-04-18T04:58:40.546Z,62.29
2023-04-18T05:00:46.183Z,59.47
2023-04-18T05:02:32.129Z,57.76
2023-04-18T05:04:20.262Z,59.26
2023-04-18T05:06:08.197Z,61.46
2023-04-18T05:07:41.679Z,64.36
2023-04-18T05:09:15.002Z,64.89
2023-04-18T05:10:51.175Z,62.74
2023-04-18T05:12:33.791Z,60.80
2023-04-18T05:14:07.566Z,58.17
2023-04-18T05:15:52.780Z,57.86
2023-04-18T05:17:16.664Z,59.60
2023-04-18T05:18:50.455Z,61.28
2023-04-18T05:20:23.771Z,63.60
2023-04-18T05:21:47.533Z,65.07
2023-04-18T05:23:23.209Z,63.52
2023-04-18T05:24:59.337Z,60.99
2023-04-18T05:26:34.847Z,59.16
2023-04-18T05:28:10.516Z,57.83
2023-04-18T05:29:43.672Z,58.46
2023-04-18T05:31:19.140Z,60.59
2023-04-18T05:33:00.422Z,62.84
2023-04-18T05:34:38.602Z,65.43
2023-04-18T05:36:03.695Z,64.15
2023-04-18T05:37:48.892Z,61.64
2023-04-18T05:39:35.389Z,59.17
2023-04-18T05:41:08.779Z,57.68
2023-04-18T05:42:42.246Z,58.83
2023-04-18T05:44:22.405Z,60.69
2023-04-18T05:45:43.751Z,62.61
2023-04-18T05:47:28.479Z,65.04
2023-04-18T05:49:09.500Z,64.02
2023-04-18T05:50:33.497Z,62.37
2023-04-18T05:52:23.108Z,60.14
2023-04-18T05:53:59.407Z,58.03
2023-04-18T05:55:34.969Z,57.92
2023-04-18T05:57:10.882Z,59.73
2023-04-18T05:58:46.697Z,61.75
2023-04-18T06:00:27.454Z,64.61
2023-04-18T06:02:21.848Z,64.38
2023-04-18T06:03:51.421Z,61.80
2023-04-18T06:05:15.464Z,60.43
2023-04-18T06:07:00.761Z,58.80
2023-04-18T06:08:22.130Z,57.04
2023-04-18T06:10:07.643Z,58.74
2023-04-18T06:11:43.425Z,60.93
2023-04-18T06:13:19.097Z,62.85
2023-04-18T06:14:45.303Z,65.04
2023-04-18T06:16:31.762Z,64.27
2023-04-18T06:18:05.072Z,61.47
2023-04-18T06:19:38.531Z,59.89
2023-04-18T06:21:13.189Z,57.72
2023-04-18T06:23:01.108Z,58.19
2023-04-18T06:24:46.358Z,60.22
2023-04-18T06:26:15.306Z,62.52
2023-04-18T06:28:00.709Z,64.40
2023-04-18T06:29:42.178Z,63.63
2023-04-18T06:31:27.159Z,61.20
2023-04-18T06:33:00.626Z,59.39
2023-04-18T06:34:43.939Z,57.52
2023-04-18T06:36:24.844Z,58.79
2023-04-18T06:38:11.239Z,60.81
2023-04-18T06:40:04.338Z,63.03
2023-04-18T06:41:39.696Z,65.20
2023-04-18T06:43:26.373Z,63.49
2023-04-18T06:45:15.960Z,60.78
2023-04-18T06:46:49.664Z,59.02
2023-04-18T06:48:25.292Z,57.97
2023-04-18T06:49:59.267Z,59.22
2023-04-18T06:51:39.810Z,61.22
2023-04-18T06:53:13.880Z,64.07
2023-04-18T06:54:49.326Z,65.67
2023-04-18T06:56:22.605Z,64.12
2023-04-18T06:57:46.628Z,61.91
2023-04-18T06:59:12.622Z,60.32
2023-04-18T07:00:59.759Z,58.06
2023-04-18T07:02:33.193Z,58.19
2023-04-18T07:04:27.018Z,59.75
2023-04-18T07:06:02.848Z,62.45
2023-04-18T07:07:27.033Z,64.97
2023-04-18T07:09:02.593Z,64.87
2023-04-18T07:10:47.458Z,62.78
2023-04-18T07:12:36.239Z,60.56
2023-04-18T07:14:21.320Z,58.50
2023-04-18T07:16:06.526Z,58.13
2023-04-18T07:17:41.925Z,60.07
2023-04-18T07:19:27.147Z,62.41
2023-04-18T07:21:20.803Z,64.86
2023-04-18T07:22:42.713Z,64.31
2023-04-18T07:24:23.535Z,62.19
2023-04-18T07:26:09.963Z,60.14
2023-04-18T07:27:43.677Z,58.26
2023-04-18T07:29:32.744Z,58.60
2023-04-18T07:31:09.052Z,60.51
2023-04-18T07:32:34.023Z,62.28
2023-04-18T07:34:20.435Z,64.55
2023-04-18T07:35:53.898Z,64.14
2023-04-18T07:37:33.831Z,62.39
2023-04-18T07:39:08.083Z,59.76
2023-04-18T07:40:31.892Z,57.90
2023-04-18T07:42:16.710Z,57.79
2023-04-18T07:44:03.210Z,59.97
2023-04-18T07:45:36.321Z,61.82
2023-04-18T07:47:09.950Z,63.80
2023-04-18T07:48:43.687Z,64.82
2023-04-18T07:50:17.282Z,62.67
2023-04-18T07:51:51.017Z,60.56
2023-04-18T07:53:35.929Z,58.16
2023-04-18T07:55:24.467Z,57.42
2023-04-18T07:56:46.678Z,58.67
2023-04-18T07:58:19.961Z,60.52
2023-04-18T07:59:53.284Z,63.15
2023-04-18T08:01:27.288Z,64.56
2023-04-18T08:03:01.239Z,62.44
2023-04-18T08:04:46.252Z,60.40
2023-04-18T08:06:17.721Z,57.70
2023-04-18T08:07:41.539Z,57.39
2023-04-18T08:09:26.181Z,58.81
2023-04-18T08:11:01.714Z,60.96
2023-04-18T08:12:42.197Z,62.67
2023-04-18T08:14:17.552Z,64.26
2023-04-18T08:16:06.167Z,63.02
2023-04-18T08:17:51.450Z,60.43
2023-04-18T08:19:36.757Z,57.44
2023-04-18T08:21:12.869Z,57.56
2023-04-18T08:23:08.716Z,59.48
2023-04-18T08:25:04.296Z,61.08
2023-04-18T08:26:50.164Z,63.77
2023-04-18T08:28:24.970Z,64.02
2023-04-18T08:29:54.235Z,61.84
2023-04-18T08:31:36.780Z,59.79
2023-04-18T08:33:06.176Z,57.57
2023-04-18T08:34:51.365Z,57.03
2023-04-18T08:36:27.044Z,58.20
2023-04-18T08:38:00.789Z,60.09
2023-04-18T08:39:45.647Z,62.33
2023-04-18T08:41:31.739Z,64.97
2023-04-18T08:43:07.860Z,63.21
2023-04-18T08:44:48.728Z,60.81
2023-04-18T08:46:31.056Z,57.79
2023-04-18T08:48:04.971Z,57.15
2023-04-18T08:49:49.823Z,58.61
2023-04-18T08:51:33.901Z,60.99
2023-04-18T08:53:07.591Z,62.90
2023-04-18T08:54:49.165Z,63.52
2023-04-18T08:56:25.485Z,61.49
2023-04-18T08:58:11.343Z,58.80
2023-04-18T08:59:43.800Z,56.46
2023-04-18T09:01:17.872Z,57.30
2023-04-18T09:03:06.764Z,58.92
2023-04-18T09:04:49.507Z,61.10
2023-04-18T09:06:33.419Z,62.57
2023-04-18T09:08:07.440Z,64.50
2023-04-18T09:09:52.471Z,63.87
2023-04-18T09:11:26.254Z,60.75
2023-04-18T09:12:59.903Z,57.85
2023-04-18T09:14:24.090Z,56.63
2023-04-18T09:15:59.142Z,58.09
2023-04-18T09:17:44.301Z,58.92
2023-04-18T09:19:29.986Z,60.66
2023-04-18T09:21:03.639Z,61.83
2023-04-18T09:22:49.058Z,62.94
2023-04-18T09:24:35.507Z,64.93
2023-04-18T09:25:59.552Z,62.30
2023-04-18T09:27:38.821Z,59.39
2023-04-18T09:29:12.460Z,57.01
2023-04-18T09:30:46.550Z,57.93
2023-04-18T09:32:15.257Z,59.11
2023-04-18T09:33:56.761Z,60.51
2023-04-18T09:35:25.981Z,62.11
2023-04-18T09:36:52.803Z,63.83
2023-04-18T09:38:27.938Z,63.85
2023-04-18T09:40:22.737Z,61.12
2023-04-18T09:41:44.483Z,58.94
2023-04-18T09:43:25.626Z,57.71
2023-04-18T09:45:01.297Z,58.01
2023-04-18T09:46:47.482Z,59.95
2023-04-18T09:50:24.296Z,62.81
2023-04-18T09:51:46.636Z,64.69
2023-04-18T09:53:08.520Z,63.54
2023-04-18T09:54:30.485Z,61.37
2023-04-18T09:55:52.417Z,59.53
2023-04-18T09:57:13.912Z,57.44
2023-04-18T09:58:35.913Z,56.69
2023-04-18T09:59:57.627Z,57.95
2023-04-18T10:01:19.333Z,59.34
2023-04-18T10:02:41.395Z,60.51
2023-04-18T10:04:04.346Z,61.22
2023-04-18T10:05:25.908Z,62.19
2023-04-18T10:06:50.342Z,63.83
2023-04-18T10:08:27.747Z,63.44
2023-04-18T10:09:54.517Z,61.11
2023-04-18T10:11:34.948Z,57.88
2023-04-18T10:13:16.016Z,56.23
2023-04-18T10:14:42.410Z,57.32
2023-04-18T10:16:07.009Z,58.83
2023-04-18T10:18:03.694Z,60.29
2023-04-18T10:19:41.251Z,61.03
2023-04-18T10:21:26.075Z,62.98
2023-04-18T10:22:48.044Z,63.18
2023-04-18T10:24:09.803Z,61.26
2023-04-18T10:25:31.931Z,58.70
2023-04-18T10:26:54.254Z,56.22
2023-04-18T10:28:32.919Z,56.12
2023-04-18T10:30:08.016Z,56.85
2023-04-18T10:31:54.096Z,59.12
2023-04-18T10:33:42.035Z,61.22
2023-04-18T10:35:36.733Z,62.93
2023-04-18T10:37:23.952Z,62.19
2023-04-18T10:39:09.507Z,58.80
2023-04-18T10:40:45.328Z,56.06
2023-04-18T10:42:37.334Z,57.05
2023-04-18T10:43:59.578Z,58.73
2023-04-18T10:45:40.582Z,59.62
2023-04-18T10:47:21.251Z,61.05
2023-04-18T10:48:54.796Z,61.37
2023-04-18T10:50:30.219Z,62.21
2023-04-18T10:52:15.651Z,63.95
2023-04-18T10:54:01.248Z,63.41
2023-04-18T10:55:46.357Z,60.20
2023-04-18T10:57:40.411Z,56.80
2023-04-18T10:59:25.855Z,57.31
2023-04-18T11:01:20.786Z,57.79
2023-04-18T11:02:52.395Z,59.78
2023-04-18T11:04:36.591Z,60.74
2023-04-18T11:06:09.812Z,61.68
2023-04-18T11:07:32.125Z,61.83
2023-04-18T11:09:15.747Z,62.34
2023-04-18T11:11:00.761Z,63.70
2023-04-18T11:12:46.171Z,61.90
2023-04-18T11:14:19.602Z,58.89
2023-04-18T11:16:00.624Z,55.88
2023-04-18T11:17:46.430Z,56.47
2023-04-18T11:19:08.142Z,57.21
2023-04-18T11:20:53.059Z,58.43
2023-04-18T11:22:38.131Z,59.39
2023-04-18T11:24:31.703Z,60.78
2023-04-18T11:26:00.970Z,61.54
2023-04-18T11:27:36.805Z,62.18
2023-04-18T11:29:17.406Z,63.56
2023-04-18T11:31:11.733Z,60.62
2023-04-18T11:32:56.673Z,57.11
2023-04-18T11:34:41.755Z,57.30
2023-04-18T11:36:35.707Z,58.24
2023-04-18T11:38:30.829Z,60.19
2023-04-18T11:40:12.728Z,60.59
2023-04-18T11:41:36.773Z,61.45
2023-04-18T11:43:25.177Z,61.65
2023-04-18T11:45:19.732Z,61.27
2023-04-18T11:47:04.892Z,61.23
2023-04-18T11:48:36.201Z,61.31
2023-04-18T11:50:12.052Z,62.21
2023-04-18T11:51:47.981Z,63.41
2023-04-18T11:53:35.912Z,62.09
2023-04-18T11:55:21.044Z,59.31
2023-04-18T11:56:53.452Z,55.48
2023-04-18T11:58:46.062Z,54.70
2023-04-18T12:00:32.357Z,56.26
2023-04-18T12:02:16.216Z,57.01
2023-04-18T12:03:46.556Z,57.48
2023-04-18T12:05:27.378Z,58.22
2023-04-18T12:07:03.461Z,58.99
2023-04-18T12:08:37.003Z,60.34
2023-04-18T12:09:59.301Z,61.54
2023-04-18T12:11:25.774Z,61.97
2023-04-18T12:13:08.632Z,62.43
2023-04-18T12:15:02.264Z,60.66
2023-04-18T12:16:42.626Z,56.34
2023-04-18T12:18:25.384Z,54.45
2023-04-18T12:19:49.687Z,53.95
2023-04-18T12:21:43.285Z,53.90
2023-04-18T12:23:24.897Z,53.42
2023-04-18T12:24:58.552Z,53.90
2023-04-18T12:26:43.223Z,54.58
2023-04-18T12:28:29.805Z,55.42
2023-04-18T12:30:06.456Z,56.18
2023-04-18T12:31:39.394Z,56.19
2023-04-18T12:33:19.917Z,55.83
2023-04-18T12:34:53.625Z,56.90
2023-04-18T12:36:15.346Z,56.91
2023-04-18T12:37:56.723Z,57.22
2023-04-18T12:39:41.829Z,56.60
2023-04-18T12:41:08.327Z,56.24
2023-04-18T12:42:33.402Z,57.69
2023-04-18T12:44:18.583Z,57.70
2023-04-18T12:46:04.697Z,56.60
2023-04-18T12:47:49.841Z,57.37
2023-04-18T12:49:43.775Z,57.20
2023-04-18T12:51:24.199Z,56.97
2023-04-18T12:52:46.023Z,57.36
2023-04-18T12:54:26.459Z,57.97
2023-04-18T12:56:00.383Z,57.72
2023-04-18T12:57:21.745Z,57.67
2023-04-18T12:58:55.232Z,58.02
2023-04-18T13:00:40.287Z,58.28
2023-04-18T13:02:25.867Z,57.83
2023-04-18T13:03:56.496Z,57.72
2023-04-18T13:05:45.025Z,58.24
2023-04-18T13:07:09.278Z,58.00
2023-04-18T13:08:45.180Z,58.89
2023-04-18T13:10:20.742Z,59.10
2023-04-18T13:11:42.645Z,59.71
2023-04-18T13:13:25.375Z,60.14
2023-04-18T13:14:47.501Z,60.43
2023-04-18T13:16:09.567Z,60.88
2023-04-18T13:17:43.128Z,61.25
2023-04-18T13:19:16.443Z,61.29
2023-04-18T13:21:01.534Z,62.06
2023-04-18T13:22:37.432Z,63.45
2023-04-18T13:24:31.902Z,62.22
2023-04-18T13:26:25.575Z,58.82
2023-04-18T13:27:50.577Z,55.85
2023-04-18T13:29:14.463Z,55.34
2023-04-18T13:31:00.789Z,55.76
2023-04-18T13:32:45.967Z,56.13
2023-04-18T13:34:21.630Z,57.21
2023-04-18T13:36:10.143Z,57.56
2023-04-18T13:37:39.812Z,57.93
2023-04-18T13:39:24.784Z,58.44
2023-04-18T13:41:08.943Z,58.77
2023-04-18T13:42:36.861Z,59.37
2023-04-18T13:44:01.170Z,59.49
2023-04-18T13:45:37.058Z,59.56
2023-04-18T13:47:18.013Z,59.80
2023-04-18T13:48:42.262Z,60.52
2023-04-18T13:50:23.001Z,61.46
2023-04-18T13:51:58.712Z,61.45
2023-04-18T13:53:40.225Z,61.19
2023-04-18T13:55:02.068Z,60.79
2023-04-18T13:56:26.569Z,60.46
2023-04-18T13:58:00.637Z,59.58
2023-04-18T13:59:29.320Z,59.78
2023-04-18T14:01:02.988Z,60.08
2023-04-18T14:02:48.070Z,60.39
2023-04-18T14:04:34.115Z,60.60
2023-04-18T14:05:59.376Z,60.84
2023-04-18T14:07:28.308Z,61.00
2023-04-18T14:08:59.773Z,61.44
2023-04-18T14:10:45.089Z,61.99
2023-04-18T14:12:36.296Z,62.97
2023-04-18T14:14:19.853Z,62.96
2023-04-18T14:15:41.397Z,60.41
2023-04-18T14:17:16.893Z,56.60
2023-04-18T14:19:02.389Z,54.89
2023-04-18T14:20:50.597Z,55.25
2023-04-18T14:22:35.607Z,56.24
2023-04-18T14:24:20.859Z,57.30
2023-04-18T14:26:15.745Z,58.23
2023-04-18T14:28:10.762Z,59.42
2023-04-18T14:29:44.423Z,60.37
2023-04-18T14:31:18.086Z,60.99
2023-04-18T14:32:40.540Z,61.72
2023-04-18T14:34:12.531Z,62.42
2023-04-18T14:35:44.278Z,63.31
2023-04-18T14:37:18.111Z,62.27
2023-04-18T14:39:12.900Z,58.63
2023-04-18T14:40:48.686Z,55.67
2023-04-18T14:42:25.240Z,55.88
2023-04-18T14:44:19.751Z,57.46
2023-04-18T14:46:13.515Z,58.90
2023-04-18T14:47:58.923Z,60.42
2023-04-18T14:49:34.289Z,61.28
2023-04-18T14:51:10.042Z,62.41
2023-04-18T14:52:39.142Z,63.65
2023-04-18T14:54:08.547Z,62.53
2023-04-18T14:55:53.932Z,59.80
2023-04-18T14:57:36.153Z,56.35
2023-04-18T14:59:30.737Z,55.87
2023-04-18T15:01:02.752Z,57.14
2023-04-18T15:02:26.638Z,58.50
2023-04-18T15:04:12.308Z,59.78
2023-04-18T15:05:54.675Z,61.00
2023-04-18T15:07:28.006Z,61.70
2023-04-18T15:08:57.762Z,63.39
2023-04-18T15:10:19.071Z,63.58
2023-04-18T15:12:08.764Z,61.18
2023-04-18T15:13:39.962Z,57.74
2023-04-18T15:15:25.119Z,55.63
2023-04-18T15:17:00.925Z,56.66
2023-04-18T15:18:36.885Z,57.89
2023-04-18T15:20:10.593Z,59.27
2023-04-18T15:21:43.929Z,60.11
2023-04-18T15:23:29.639Z,61.07
2023-04-18T15:25:23.768Z,61.89
2023-04-18T15:27:09.431Z,62.92
2023-04-18T15:28:45.220Z,62.65
2023-04-18T15:30:30.113Z,60.07
2023-04-18T15:32:23.618Z,56.19
2023-04-18T15:33:45.460Z,55.53
2023-04-18T15:35:20.216Z,56.53
2023-04-18T15:36:56.156Z,57.10
2023-04-18T15:38:31.536Z,57.86
2023-04-18T15:40:18.688Z,58.91
2023-04-18T15:42:03.776Z,59.41
2023-04-18T15:43:48.811Z,60.28
2023-04-18T15:45:24.137Z,60.88
2023-04-18T15:47:10.576Z,61.11
2023-04-18T15:48:45.616Z,61.51
2023-04-18T15:50:40.763Z,62.08
2023-04-18T15:52:23.306Z,62.50
2023-04-18T15:54:17.761Z,62.84
2023-04-18T15:56:11.311Z,59.81
2023-04-18T15:57:56.256Z,55.82
2023-04-18T15:59:41.071Z,55.34
2023-04-18T16:01:15.919Z,56.12
2023-04-18T16:02:49.746Z,57.38
2023-04-18T16:04:34.560Z,58.14
2023-04-18T16:06:08.149Z,59.28
2023-04-18T16:08:01.770Z,59.73
2023-04-18T16:09:46.545Z,60.58
2023-04-18T16:11:40.207Z,61.22
2023-04-18T16:13:25.618Z,61.76
2023-04-18T16:15:01.645Z,62.09
2023-04-18T16:16:46.772Z,62.49
2023-04-18T16:18:41.780Z,63.02
2023-04-18T16:20:27.054Z,60.04
2023-04-18T16:22:12.407Z,56.17
2023-04-18T16:23:41.380Z,55.11
2023-04-18T16:25:16.246Z,55.79
2023-04-18T16:27:09.547Z,56.85
2023-04-18T16:28:43.069Z,57.81
2023-04-18T16:30:09.897Z,58.91
2023-04-18T16:31:43.422Z,59.61
2023-04-18T16:33:28.686Z,60.48
2023-04-18T16:35:09.935Z,60.82
2023-04-18T16:36:34.433Z,61.01
2023-04-18T16:38:11.166Z,61.69
2023-04-18T16:39:46.480Z,62.01
2023-04-18T16:41:26.890Z,62.76
2023-04-18T16:43:14.903Z,62.83
2023-04-18T16:44:48.449Z,60.39
2023-04-18T16:46:34.281Z,56.37
2023-04-18T16:47:59.070Z,55.11
2023-04-18T16:49:34.679Z,55.46
2023-04-18T16:51:08.005Z,56.59
2023-04-18T16:52:53.310Z,57.58
2023-04-18T16:54:15.481Z,58.39
2023-04-18T16:55:44.665Z,59.22
2023-04-18T16:57:29.839Z,60.38
2023-04-18T16:59:10.651Z,60.42
2023-04-18T17:00:32.134Z,60.74
2023-04-18T17:02:01.180Z,61.11
2023-04-18T17:03:43.914Z,61.53
2023-04-18T17:05:09.676Z,62.03
2023-04-18T17:06:51.986Z,62.33
2023-04-18T17:08:25.872Z,63.13
2023-04-18T17:09:59.393Z,62.26
2023-04-18T17:11:46.352Z,58.92
2023-04-18T17:13:31.677Z,55.47
2023-04-18T17:15:05.759Z,55.35
2023-04-18T17:16:27.179Z,55.90
2023-04-18T17:18:09.228Z,57.13
2023-04-18T17:19:42.569Z,57.97
2023-04-18T17:21:27.266Z,58.87
2023-04-18T17:22:51.720Z,59.27
2023-04-18T17:24:15.909Z,60.05
2023-04-18T17:25:49.131Z,60.21
2023-04-18T17:27:20.493Z,60.99
2023-04-18T17:28:49.790Z,61.22
2023-04-18T17:30:26.235Z,61.83
2023-04-18T17:31:51.073Z,62.01
2023-04-18T17:33:23.075Z,62.37
2023-04-18T17:35:04.083Z,63.53
2023-04-18T17:36:26.315Z,61.97
2023-04-18T17:37:50.476Z,59.16
2023-04-18T17:39:21.085Z,56.19
2023-04-18T17:41:02.098Z,55.14
2023-04-18T17:42:28.848Z,55.94
2023-04-18T17:44:02.394Z,56.90
2023-04-18T17:45:31.232Z,57.68
2023-04-18T17:47:01.046Z,58.94
2023-04-18T17:48:22.452Z,59.37
2023-04-18T17:50:04.062Z,59.69
2023-04-18T17:51:37.709Z,60.38
2023-04-18T17:53:13.501Z,60.92
2023-04-18T17:54:37.309Z,61.37
2023-04-18T17:56:01.942Z,61.71
2023-04-18T17:57:35.870Z,62.09
2023-04-18T17:59:18.760Z,62.99
2023-04-18T18:03:28.816Z,56.98
2023-04-18T18:04:58.084Z,55.30
2023-04-18T18:06:20.251Z,55.01
2023-04-18T18:07:56.159Z,56.30
2023-04-18T18:09:41.531Z,57.23
2023-04-18T18:11:16.234Z,58.10
2023-04-18T18:12:50.054Z,58.82
2023-04-18T18:14:12.049Z,59.55
2023-04-18T18:15:45.516Z,60.33
2023-04-18T18:17:28.884Z,60.78
2023-04-18T18:18:55.726Z,61.64
2023-04-18T18:20:19.958Z,62.03
2023-04-18T18:22:01.250Z,62.42
2023-04-18T18:23:46.369Z,63.86
2023-04-18T18:25:13.255Z,62.22
2023-04-18T18:26:34.815Z,59.43
2023-04-18T18:28:17.779Z,56.43
2023-04-18T18:29:54.008Z,55.78
2023-04-18T18:31:27.516Z,56.58
2023-04-18T18:32:57.144Z,57.54
2023-04-18T18:34:21.431Z,58.79
2023-04-18T18:36:14.412Z,59.69
2023-04-18T18:37:47.824Z,60.76
2023-04-18T18:39:21.222Z,61.56
2023-04-18T18:41:07.008Z,62.10
2023-04-18T18:42:43.078Z,62.91
2023-04-18T18:44:16.906Z,63.29
2023-04-18T18:45:50.171Z,61.39
2023-04-18T18:47:43.814Z,57.41
2023-04-18T18:49:13.307Z,55.66
2023-04-18T18:50:42.727Z,56.17
2023-04-18T18:52:11.993Z,57.43
2023-04-18T18:53:34.685Z,58.57
2023-04-18T18:55:04.498Z,59.52
2023-04-18T18:56:26.744Z,60.22
2023-04-18T18:58:03.326Z,61.00
2023-04-18T18:59:39.751Z,61.71
2023-04-18T19:01:20.659Z,62.58
2023-04-18T19:02:50.413Z,63.42
2023-04-18T19:04:22.513Z,61.31
2023-04-18T19:06:04.174Z,58.15
2023-04-18T19:07:45.197Z,55.87
2023-04-18T19:09:20.623Z,56.16
2023-04-18T19:10:56.164Z,57.02
2023-04-18T19:12:25.430Z,58.10
2023-04-18T19:13:47.191Z,59.23
2023-04-18T19:15:41.763Z,60.25
2023-04-18T19:17:15.274Z,61.23
2023-04-18T19:18:51.231Z,61.80
2023-04-18T19:20:12.936Z,62.71
2023-04-18T19:21:48.317Z,63.71
2023-04-18T19:23:42.788Z,61.28
2023-04-18T19:25:23.396Z,57.44
2023-04-18T19:26:47.527Z,55.28
2023-04-18T19:28:28.397Z,55.94
2023-04-18T19:30:16.908Z,57.04
2023-04-18T19:31:53.618Z,58.32
2023-04-18T19:33:39.110Z,59.27
2023-04-18T19:35:12.986Z,60.19
2023-04-18T19:37:05.319Z,61.05
2023-04-18T19:38:50.828Z,61.95
2023-04-18T19:40:26.609Z,62.86
2023-04-18T19:41:53.622Z,63.46
2023-04-18T19:43:17.546Z,61.66
2023-04-18T19:44:39.850Z,58.79
2023-04-18T19:46:02.214Z,56.00
2023-04-18T19:47:36.926Z,55.49
2023-04-18T19:49:30.843Z,56.45
2023-04-18T19:50:52.589Z,57.66
2023-04-18T19:55:56.351Z,60.86
2023-04-18T19:57:29.672Z,61.64
2023-04-18T19:58:51.970Z,62.48
2023-04-18T20:00:16.011Z,63.60
2023-04-18T20:01:52.027Z,62.53
2023-04-18T20:03:25.654Z,59.53
2023-04-18T20:04:59.737Z,56.60
2023-04-18T20:06:21.922Z,55.90
2023-04-18T20:07:43.487Z,56.44
2023-04-18T20:09:13.072Z,57.48
2023-04-18T20:10:42.790Z,58.86
2023-04-18T20:12:15.998Z,59.97
2023-04-18T20:13:37.840Z,60.94
2023-04-18T20:15:01.969Z,61.79
2023-04-18T20:16:23.813Z,62.74
2023-04-18T20:17:45.466Z,63.81
2023-04-18T20:19:12.675Z,62.68
2023-04-18T20:20:42.622Z,59.99
2023-04-18T20:22:14.750Z,56.71
2023-04-18T20:23:58.844Z,55.76
2023-04-18T20:25:30.356Z,56.91
2023-04-18T20:27:03.963Z,58.23
2023-04-18T20:28:39.536Z,59.62
2023-04-18T20:30:33.232Z,60.90
2023-04-18T20:32:09.258Z,62.24
2023-04-18T20:33:54.657Z,64.10
2023-04-18T20:35:28.052Z,62.98
2023-04-18T20:36:58.004Z,60.07
2023-04-18T20:38:26.861Z,57.07
2023-04-18T20:40:02.670Z,55.92
2023-04-18T20:41:31.992Z,56.85
2023-04-18T20:43:08.058Z,58.38
2023-04-18T20:44:31.061Z,59.53
2023-04-18T20:45:57.785Z,60.75
2023-04-18T20:47:39.343Z,61.95
2023-04-18T20:49:13.282Z,63.48
2023-04-18T20:50:48.891Z,63.39
2023-04-18T20:52:13.312Z,60.98
2023-04-18T20:53:47.030Z,57.88
2023-04-18T20:55:09.246Z,56.13
2023-04-18T20:56:51.264Z,56.35
2023-04-18T20:58:24.478Z,57.80
2023-04-18T21:00:10.208Z,59.38
2023-04-18T21:01:51.304Z,60.99
2023-04-18T21:03:35.889Z,62.29
2023-04-18T21:05:11.626Z,64.07
2023-04-18T21:06:33.174Z,63.31